sensor_id;sensor_type;location;lat;lon;timestamp;P1;durP1;ratioP1;P2;durP2;ratioP2
39956;SDS011;48483;44.640;7.494;2023-01-31T00:01:09;28.35;;;17.38;;
39956;SDS011;48483;44.640;7.494;2023-01-31T00:03:37;23.48;;;15.77;;
39956;SDS011;48483;44.640;7.494;2023-01-31T00:06:12;23.35;;;15.27;;
39956;SDS011;48483;44.640;7.494;2023-01-31T00:08:44;18.02;;;12.07;;
39956;SDS011;48483;44.640;7.494;2023-01-31T00:11:11;16.88;;;10.88;;
39956;SDS011;48483;44.640;7.494;2023-01-31T00:13:39;15.30;;;9.63;;
39956;SDS011;48483;44.640;7.494;2023-01-31T00:16:06;20.35;;;11.85;;
39956;SDS011;48483;44.640;7.494;2023-01-31T00:18:34;19.10;;;13.02;;
39956;SDS011;48483;44.640;7.494;2023-01-31T00:21:04;24.23;;;14.43;;
39956;SDS011;48483;44.640;7.494;2023-01-31T00:23:33;23.60;;;15.07;;
39956;SDS011;48483;44.640;7.494;2023-01-31T00:26:10;24.00;;;14.60;;
39956;SDS011;48483;44.640;7.494;2023-01-31T00:28:38;20.13;;;13.68;;
39956;SDS011;48483;44.640;7.494;2023-01-31T00:31:05;22.10;;;15.15;;
39956;SDS011;48483;44.640;7.494;2023-01-31T00:33:32;19.83;;;12.98;;
39956;SDS011;48483;44.640;7.494;2023-01-31T00:36:01;24.65;;;14.68;;
39956;SDS011;48483;44.640;7.494;2023-01-31T00:38:28;18.45;;;12.85;;
39956;SDS011;48483;44.640;7.494;2023-01-31T00:40:56;23.20;;;14.80;;
39956;SDS011;48483;44.640;7.494;2023-01-31T00:43:23;18.85;;;13.40;;
39956;SDS011;48483;44.640;7.494;2023-01-31T00:45:50;18.38;;;12.77;;
39956;SDS011;48483;44.640;7.494;2023-01-31T00:48:16;19.45;;;13.73;;
39956;SDS011;48483;44.640;7.494;2023-01-31T00:50:43;23.92;;;14.57;;
39956;SDS011;48483;44.640;7.494;2023-01-31T00:53:10;24.92;;;13.88;;
39956;SDS011;48483;44.640;7.494;2023-01-31T00:55:37;21.40;;;14.85;;
39956;SDS011;48483;44.640;7.494;2023-01-31T00:58:05;23.35;;;14.55;;
39956;SDS011;48483;44.640;7.494;2023-01-31T01:00:31;23.02;;;14.93;;
39956;SDS011;48483;44.640;7.494;2023-01-31T01:02:58;20.42;;;13.70;;
39956;SDS011;48483;44.640;7.494;2023-01-31T01:05:25;25.25;;;18.27;;
39956;SDS011;48483;44.640;7.494;2023-01-31T01:07:52;26.63;;;17.58;;
39956;SDS011;48483;44.640;7.494;2023-01-31T01:10:18;27.73;;;17.55;;
39956;SDS011;48483;44.640;7.494;2023-01-31T01:12:45;28.25;;;18.40;;
39956;SDS011;48483;44.640;7.494;2023-01-31T01:15:14;25.52;;;17.13;;
39956;SDS011;48483;44.640;7.494;2023-01-31T01:17:42;28.95;;;18.77;;
39956;SDS011;48483;44.640;7.494;2023-01-31T01:20:08;28.90;;;18.67;;
39956;SDS011;48483;44.640;7.494;2023-01-31T01:22:37;25.88;;;18.30;;
39956;SDS011;48483;44.640;7.494;2023-01-31T01:25:05;33.35;;;20.27;;
39956;SDS011;48483;44.640;7.494;2023-01-31T01:27:32;26.13;;;18.15;;
39956;SDS011;48483;44.640;7.494;2023-01-31T01:29:59;30.38;;;20.05;;
39956;SDS011;48483;44.640;7.494;2023-01-31T01:32:28;28.52;;;17.52;;
39956;SDS011;48483;44.640;7.494;2023-01-31T01:34:54;29.33;;;18.88;;
39956;SDS011;48483;44.640;7.494;2023-01-31T01:37:21;27.38;;;19.02;;
39956;SDS011;48483;44.640;7.494;2023-01-31T01:39:48;33.25;;;19.05;;
39956;SDS011;48483;44.640;7.494;2023-01-31T01:42:15;31.98;;;18.58;;
39956;SDS011;48483;44.640;7.494;2023-01-31T01:44:48;27.17;;;17.88;;
39956;SDS011;48483;44.640;7.494;2023-01-31T01:47:22;28.15;;;18.17;;
39956;SDS011;48483;44.640;7.494;2023-01-31T01:49:58;29.13;;;18.77;;
39956;SDS011;48483;44.640;7.494;2023-01-31T01:52:27;28.33;;;19.23;;
39956;SDS011;48483;44.640;7.494;2023-01-31T01:55:18;29.92;;;19.88;;
39956;SDS011;48483;44.640;7.494;2023-01-31T01:57:49;28.85;;;18.63;;
39956;SDS011;48483;44.640;7.494;2023-01-31T02:00:22;26.77;;;17.88;;
39956;SDS011;48483;44.640;7.494;2023-01-31T02:02:55;25.13;;;17.33;;
39956;SDS011;48483;44.640;7.494;2023-01-31T02:05:25;25.40;;;17.40;;
39956;SDS011;48483;44.640;7.494;2023-01-31T02:07:55;27.48;;;17.65;;
39956;SDS011;48483;44.640;7.494;2023-01-31T02:10:23;25.15;;;16.02;;
39956;SDS011;48483;44.640;7.494;2023-01-31T02:12:55;27.13;;;17.10;;
39956;SDS011;48483;44.640;7.494;2023-01-31T02:15:21;25.30;;;15.95;;
39956;SDS011;48483;44.640;7.494;2023-01-31T02:17:49;24.25;;;16.00;;
39956;SDS011;48483;44.640;7.494;2023-01-31T02:20:23;24.17;;;16.48;;
39956;SDS011;48483;44.640;7.494;2023-01-31T02:23:23;21.27;;;15.40;;
39956;SDS011;48483;44.640;7.494;2023-01-31T02:29:33;20.17;;;14.15;;
39956;SDS011;48483;44.640;7.494;2023-01-31T02:32:21;21.00;;;14.70;;
39956;SDS011;48483;44.640;7.494;2023-01-31T02:35:09;21.90;;;13.88;;
39956;SDS011;48483;44.640;7.494;2023-01-31T02:37:43;20.58;;;13.63;;
39956;SDS011;48483;44.640;7.494;2023-01-31T02:40:19;17.83;;;12.20;;
39956;SDS011;48483;44.640;7.494;2023-01-31T02:42:53;18.58;;;12.13;;
39956;SDS011;48483;44.640;7.494;2023-01-31T02:45:27;17.23;;;11.52;;
39956;SDS011;48483;44.640;7.494;2023-01-31T02:48:04;16.55;;;10.55;;
39956;SDS011;48483;44.640;7.494;2023-01-31T02:50:43;17.08;;;11.02;;
39956;SDS011;48483;44.640;7.494;2023-01-31T02:53:16;15.48;;;10.18;;
39956;SDS011;48483;44.640;7.494;2023-01-31T02:55:51;16.63;;;10.25;;
39956;SDS011;48483;44.640;7.494;2023-01-31T02:58:39;10.88;;;8.15;;
39956;SDS011;48483;44.640;7.494;2023-01-31T03:01:09;16.92;;;10.88;;
39956;SDS011;48483;44.640;7.494;2023-01-31T03:03:42;16.85;;;10.73;;
39956;SDS011;48483;44.640;7.494;2023-01-31T03:09:31;20.55;;;12.30;;
39956;SDS011;48483;44.640;7.494;2023-01-31T03:12:17;16.67;;;10.38;;
39956;SDS011;48483;44.640;7.494;2023-01-31T03:15:00;22.95;;;11.20;;
39956;SDS011;48483;44.640;7.494;2023-01-31T03:17:37;16.17;;;11.27;;
39956;SDS011;48483;44.640;7.494;2023-01-31T03:20:17;18.10;;;11.57;;
39956;SDS011;48483;44.640;7.494;2023-01-31T03:22:50;21.00;;;12.57;;
39956;SDS011;48483;44.640;7.494;2023-01-31T03:25:24;17.98;;;12.10;;
39956;SDS011;48483;44.640;7.494;2023-01-31T03:27:56;14.30;;;9.95;;
39956;SDS011;48483;44.640;7.494;2023-01-31T03:30:31;16.05;;;10.13;;
39956;SDS011;48483;44.640;7.494;2023-01-31T03:33:05;16.30;;;11.30;;
39956;SDS011;48483;44.640;7.494;2023-01-31T03:35:40;14.23;;;10.32;;
39956;SDS011;48483;44.640;7.494;2023-01-31T03:38:14;16.23;;;11.85;;
39956;SDS011;48483;44.640;7.494;2023-01-31T03:40:46;17.88;;;11.68;;
39956;SDS011;48483;44.640;7.494;2023-01-31T03:43:21;15.52;;;9.82;;
39956;SDS011;48483;44.640;7.494;2023-01-31T03:45:54;18.05;;;12.13;;
39956;SDS011;48483;44.640;7.494;2023-01-31T03:48:26;17.25;;;11.02;;
39956;SDS011;48483;44.640;7.494;2023-01-31T03:50:58;15.57;;;10.98;;
39956;SDS011;48483;44.640;7.494;2023-01-31T03:53:28;15.43;;;10.48;;
39956;SDS011;48483;44.640;7.494;2023-01-31T03:55:58;17.77;;;10.40;;
39956;SDS011;48483;44.640;7.494;2023-01-31T03:58:31;15.80;;;10.23;;
39956;SDS011;48483;44.640;7.494;2023-01-31T04:01:03;16.98;;;10.40;;
39956;SDS011;48483;44.640;7.494;2023-01-31T04:03:35;17.27;;;10.80;;
39956;SDS011;48483;44.640;7.494;2023-01-31T04:06:07;19.13;;;10.38;;
39956;SDS011;48483;44.640;7.494;2023-01-31T04:08:34;13.13;;;8.23;;
39956;SDS011;48483;44.640;7.494;2023-01-31T04:11:05;12.77;;;8.82;;
39956;SDS011;48483;44.640;7.494;2023-01-31T04:13:35;12.95;;;7.75;;
39956;SDS011;48483;44.640;7.494;2023-01-31T04:16:01;11.48;;;7.40;;
39956;SDS011;48483;44.640;7.494;2023-01-31T04:18:28;12.35;;;8.15;;
39956;SDS011;48483;44.640;7.494;2023-01-31T04:20:55;13.05;;;8.05;;
39956;SDS011;48483;44.640;7.494;2023-01-31T04:23:23;13.15;;;7.93;;
39956;SDS011;48483;44.640;7.494;2023-01-31T04:25:51;11.45;;;7.95;;
39956;SDS011;48483;44.640;7.494;2023-01-31T04:28:19;11.25;;;6.38;;
39956;SDS011;48483;44.640;7.494;2023-01-31T04:30:45;8.75;;;5.82;;
39956;SDS011;48483;44.640;7.494;2023-01-31T04:33:16;12.60;;;6.43;;
39956;SDS011;48483;44.640;7.494;2023-01-31T04:35:43;10.15;;;6.00;;
39956;SDS011;48483;44.640;7.494;2023-01-31T04:38:09;11.90;;;6.90;;
39956;SDS011;48483;44.640;7.494;2023-01-31T04:40:37;10.40;;;5.47;;
39956;SDS011;48483;44.640;7.494;2023-01-31T04:43:04;7.85;;;4.97;;
39956;SDS011;48483;44.640;7.494;2023-01-31T04:45:30;6.30;;;4.18;;
39956;SDS011;48483;44.640;7.494;2023-01-31T04:47:57;8.77;;;4.35;;
39956;SDS011;48483;44.640;7.494;2023-01-31T04:50:23;7.97;;;4.65;;
39956;SDS011;48483;44.640;7.494;2023-01-31T04:52:50;9.88;;;4.47;;
39956;SDS011;48483;44.640;7.494;2023-01-31T04:55:17;7.40;;;4.97;;
39956;SDS011;48483;44.640;7.494;2023-01-31T04:57:45;8.68;;;5.57;;
39956;SDS011;48483;44.640;7.494;2023-01-31T05:00:12;7.70;;;4.22;;
39956;SDS011;48483;44.640;7.494;2023-01-31T05:02:39;14.88;;;5.75;;
39956;SDS011;48483;44.640;7.494;2023-01-31T05:05:06;66.88;;;11.52;;
39956;SDS011;48483;44.640;7.494;2023-01-31T05:07:34;55.28;;;11.10;;
39956;SDS011;48483;44.640;7.494;2023-01-31T05:10:00;33.58;;;8.70;;
39956;SDS011;48483;44.640;7.494;2023-01-31T05:12:26;23.50;;;7.43;;
39956;SDS011;48483;44.640;7.494;2023-01-31T05:14:54;25.17;;;7.05;;
39956;SDS011;48483;44.640;7.494;2023-01-31T05:17:21;29.00;;;8.52;;
39956;SDS011;48483;44.640;7.494;2023-01-31T05:19:50;44.13;;;8.13;;
39956;SDS011;48483;44.640;7.494;2023-01-31T05:22:17;44.53;;;8.93;;
39956;SDS011;48483;44.640;7.494;2023-01-31T05:24:47;48.47;;;11.05;;
39956;SDS011;48483;44.640;7.494;2023-01-31T05:27:15;49.65;;;9.98;;
39956;SDS011;48483;44.640;7.494;2023-01-31T05:29:42;49.35;;;9.50;;
39956;SDS011;48483;44.640;7.494;2023-01-31T05:32:10;46.10;;;9.68;;
39956;SDS011;48483;44.640;7.494;2023-01-31T05:34:37;30.67;;;8.45;;
39956;SDS011;48483;44.640;7.494;2023-01-31T05:37:04;16.30;;;5.75;;
39956;SDS011;48483;44.640;7.494;2023-01-31T05:39:31;16.38;;;4.57;;
39956;SDS011;48483;44.640;7.494;2023-01-31T05:41:57;16.67;;;5.40;;
39956;SDS011;48483;44.640;7.494;2023-01-31T05:44:24;13.27;;;4.43;;
39956;SDS011;48483;44.640;7.494;2023-01-31T05:46:50;9.85;;;4.40;;
39956;SDS011;48483;44.640;7.494;2023-01-31T05:49:18;12.95;;;5.80;;
39956;SDS011;48483;44.640;7.494;2023-01-31T05:51:45;18.90;;;7.22;;
39956;SDS011;48483;44.640;7.494;2023-01-31T05:54:11;24.83;;;6.65;;
39956;SDS011;48483;44.640;7.494;2023-01-31T05:56:38;34.30;;;6.63;;
39956;SDS011;48483;44.640;7.494;2023-01-31T05:59:05;30.27;;;8.10;;
39956;SDS011;48483;44.640;7.494;2023-01-31T06:01:31;31.60;;;7.50;;
39956;SDS011;48483;44.640;7.494;2023-01-31T06:03:58;25.50;;;5.97;;
39956;SDS011;48483;44.640;7.494;2023-01-31T06:06:26;16.90;;;6.03;;
39956;SDS011;48483;44.640;7.494;2023-01-31T06:08:52;13.90;;;5.03;;
39956;SDS011;48483;44.640;7.494;2023-01-31T06:11:19;10.18;;;4.90;;
39956;SDS011;48483;44.640;7.494;2023-01-31T06:13:45;11.80;;;4.50;;
39956;SDS011;48483;44.640;7.494;2023-01-31T06:16:14;10.45;;;4.60;;
39956;SDS011;48483;44.640;7.494;2023-01-31T06:18:40;28.65;;;9.27;;
39956;SDS011;48483;44.640;7.494;2023-01-31T06:21:07;19.63;;;7.03;;
39956;SDS011;48483;44.640;7.494;2023-01-31T06:23:35;22.30;;;6.18;;
39956;SDS011;48483;44.640;7.494;2023-01-31T06:26:01;18.13;;;6.00;;
39956;SDS011;48483;44.640;7.494;2023-01-31T06:28:28;18.20;;;6.38;;
39956;SDS011;48483;44.640;7.494;2023-01-31T06:30:55;15.00;;;6.10;;
39956;SDS011;48483;44.640;7.494;2023-01-31T06:33:21;40.05;;;8.05;;
39956;SDS011;48483;44.640;7.494;2023-01-31T06:35:48;33.80;;;7.53;;
39956;SDS011;48483;44.640;7.494;2023-01-31T06:38:14;25.30;;;7.70;;
39956;SDS011;48483;44.640;7.494;2023-01-31T06:40:42;26.13;;;6.93;;
39956;SDS011;48483;44.640;7.494;2023-01-31T06:43:09;29.70;;;7.15;;
39956;SDS011;48483;44.640;7.494;2023-01-31T06:45:35;18.23;;;6.35;;
39956;SDS011;48483;44.640;7.494;2023-01-31T06:48:02;25.80;;;7.15;;
39956;SDS011;48483;44.640;7.494;2023-01-31T06:50:29;26.67;;;7.38;;
39956;SDS011;48483;44.640;7.494;2023-01-31T06:52:56;34.33;;;7.07;;
39956;SDS011;48483;44.640;7.494;2023-01-31T06:55:24;23.10;;;6.85;;
39956;SDS011;48483;44.640;7.494;2023-01-31T06:57:52;22.92;;;6.80;;
39956;SDS011;48483;44.640;7.494;2023-01-31T07:00:20;22.55;;;6.60;;
39956;SDS011;48483;44.640;7.494;2023-01-31T07:02:49;16.05;;;6.45;;
39956;SDS011;48483;44.640;7.494;2023-01-31T07:05:16;20.27;;;5.65;;
39956;SDS011;48483;44.640;7.494;2023-01-31T07:07:43;21.15;;;6.32;;
39956;SDS011;48483;44.640;7.494;2023-01-31T07:10:10;26.92;;;7.00;;
39956;SDS011;48483;44.640;7.494;2023-01-31T07:12:37;14.00;;;6.05;;
39956;SDS011;48483;44.640;7.494;2023-01-31T07:15:07;10.30;;;5.68;;
39956;SDS011;48483;44.640;7.494;2023-01-31T07:17:34;10.98;;;5.45;;
39956;SDS011;48483;44.640;7.494;2023-01-31T07:20:01;24.58;;;8.10;;
39956;SDS011;48483;44.640;7.494;2023-01-31T07:22:28;11.05;;;6.72;;
39956;SDS011;48483;44.640;7.494;2023-01-31T07:24:55;16.52;;;7.53;;
39956;SDS011;48483;44.640;7.494;2023-01-31T07:27:21;17.23;;;7.28;;
39956;SDS011;48483;44.640;7.494;2023-01-31T07:29:49;17.88;;;10.02;;
39956;SDS011;48483;44.640;7.494;2023-01-31T07:32:17;23.02;;;7.82;;
39956;SDS011;48483;44.640;7.494;2023-01-31T07:34:44;15.63;;;7.43;;
39956;SDS011;48483;44.640;7.494;2023-01-31T07:37:12;15.30;;;8.00;;
39956;SDS011;48483;44.640;7.494;2023-01-31T07:39:40;17.67;;;7.03;;
39956;SDS011;48483;44.640;7.494;2023-01-31T07:42:06;14.63;;;7.47;;
39956;SDS011;48483;44.640;7.494;2023-01-31T07:44:33;17.58;;;7.60;;
39956;SDS011;48483;44.640;7.494;2023-01-31T07:46:59;16.50;;;7.28;;
39956;SDS011;48483;44.640;7.494;2023-01-31T07:49:27;16.75;;;7.32;;
39956;SDS011;48483;44.640;7.494;2023-01-31T07:51:54;14.52;;;7.53;;
39956;SDS011;48483;44.640;7.494;2023-01-31T07:54:20;12.98;;;7.55;;
39956;SDS011;48483;44.640;7.494;2023-01-31T07:56:47;19.80;;;8.57;;
39956;SDS011;48483;44.640;7.494;2023-01-31T07:59:14;17.40;;;7.22;;
39956;SDS011;48483;44.640;7.494;2023-01-31T08:01:42;12.35;;;7.22;;
39956;SDS011;48483;44.640;7.494;2023-01-31T08:04:47;15.07;;;7.30;;
39956;SDS011;48483;44.640;7.494;2023-01-31T08:07:14;13.65;;;8.00;;
39956;SDS011;48483;44.640;7.494;2023-01-31T08:09:40;16.83;;;9.18;;
39956;SDS011;48483;44.640;7.494;2023-01-31T08:12:11;24.98;;;15.20;;
39956;SDS011;48483;44.640;7.494;2023-01-31T08:14:39;21.58;;;14.52;;
39956;SDS011;48483;44.640;7.494;2023-01-31T08:17:06;24.95;;;15.90;;
39956;SDS011;48483;44.640;7.494;2023-01-31T08:19:34;29.10;;;18.45;;
39956;SDS011;48483;44.640;7.494;2023-01-31T08:22:02;40.03;;;26.92;;
39956;SDS011;48483;44.640;7.494;2023-01-31T08:24:29;35.13;;;19.35;;
39956;SDS011;48483;44.640;7.494;2023-01-31T08:26:56;27.63;;;17.08;;
39956;SDS011;48483;44.640;7.494;2023-01-31T08:29:23;21.90;;;14.38;;
39956;SDS011;48483;44.640;7.494;2023-01-31T08:31:49;23.52;;;13.80;;
39956;SDS011;48483;44.640;7.494;2023-01-31T08:34:16;21.05;;;13.43;;
39956;SDS011;48483;44.640;7.494;2023-01-31T08:36:43;19.42;;;12.00;;
39956;SDS011;48483;44.640;7.494;2023-01-31T08:39:11;17.65;;;12.43;;
39956;SDS011;48483;44.640;7.494;2023-01-31T08:41:37;20.58;;;12.80;;
39956;SDS011;48483;44.640;7.494;2023-01-31T08:44:04;25.35;;;15.18;;
39956;SDS011;48483;44.640;7.494;2023-01-31T08:46:32;22.05;;;14.07;;
39956;SDS011;48483;44.640;7.494;2023-01-31T08:49:00;21.55;;;14.35;;
39956;SDS011;48483;44.640;7.494;2023-01-31T08:51:27;21.77;;;14.50;;
39956;SDS011;48483;44.640;7.494;2023-01-31T08:53:54;24.52;;;14.55;;
39956;SDS011;48483;44.640;7.494;2023-01-31T08:56:22;28.23;;;15.50;;
39956;SDS011;48483;44.640;7.494;2023-01-31T08:58:51;25.38;;;15.65;;
39956;SDS011;48483;44.640;7.494;2023-01-31T09:01:19;29.42;;;15.13;;
39956;SDS011;48483;44.640;7.494;2023-01-31T09:03:47;24.45;;;14.82;;
39956;SDS011;48483;44.640;7.494;2023-01-31T09:06:15;22.92;;;15.63;;
39956;SDS011;48483;44.640;7.494;2023-01-31T09:08:43;24.05;;;15.93;;
39956;SDS011;48483;44.640;7.494;2023-01-31T09:11:10;20.25;;;14.85;;
39956;SDS011;48483;44.640;7.494;2023-01-31T09:13:43;20.88;;;15.20;;
39956;SDS011;48483;44.640;7.494;2023-01-31T09:16:10;25.30;;;15.75;;
39956;SDS011;48483;44.640;7.494;2023-01-31T09:18:38;30.42;;;15.90;;
39956;SDS011;48483;44.640;7.494;2023-01-31T09:21:06;26.52;;;15.63;;
39956;SDS011;48483;44.640;7.494;2023-01-31T09:23:34;22.45;;;15.40;;
39956;SDS011;48483;44.640;7.494;2023-01-31T09:26:02;20.25;;;13.38;;
39956;SDS011;48483;44.640;7.494;2023-01-31T09:28:29;20.88;;;13.25;;
39956;SDS011;48483;44.640;7.494;2023-01-31T09:31:02;23.00;;;14.63;;
39956;SDS011;48483;44.640;7.494;2023-01-31T09:33:29;25.98;;;14.75;;
39956;SDS011;48483;44.640;7.494;2023-01-31T09:35:57;26.65;;;15.25;;
39956;SDS011;48483;44.640;7.494;2023-01-31T09:38:25;20.40;;;13.80;;
39956;SDS011;48483;44.640;7.494;2023-01-31T09:40:52;20.35;;;14.07;;
39956;SDS011;48483;44.640;7.494;2023-01-31T09:43:21;27.65;;;15.55;;
39956;SDS011;48483;44.640;7.494;2023-01-31T09:45:54;27.35;;;16.30;;
39956;SDS011;48483;44.640;7.494;2023-01-31T09:48:27;24.60;;;16.50;;
39956;SDS011;48483;44.640;7.494;2023-01-31T09:50:56;27.50;;;15.32;;
39956;SDS011;48483;44.640;7.494;2023-01-31T09:53:26;22.90;;;15.15;;
39956;SDS011;48483;44.640;7.494;2023-01-31T09:55:59;23.70;;;15.75;;
39956;SDS011;48483;44.640;7.494;2023-01-31T09:58:37;34.60;;;19.92;;
39956;SDS011;48483;44.640;7.494;2023-01-31T10:01:10;39.25;;;22.95;;
39956;SDS011;48483;44.640;7.494;2023-01-31T10:03:47;30.88;;;20.15;;
39956;SDS011;48483;44.640;7.494;2023-01-31T10:06:27;25.52;;;18.48;;
39956;SDS011;48483;44.640;7.494;2023-01-31T10:09:00;24.17;;;17.77;;
39956;SDS011;48483;44.640;7.494;2023-01-31T10:11:33;24.70;;;16.63;;
39956;SDS011;48483;44.640;7.494;2023-01-31T10:14:05;29.45;;;17.33;;
39956;SDS011;48483;44.640;7.494;2023-01-31T10:16:45;24.23;;;16.48;;
39956;SDS011;48483;44.640;7.494;2023-01-31T10:19:23;23.90;;;15.52;;
39956;SDS011;48483;44.640;7.494;2023-01-31T10:21:54;21.77;;;13.52;;
39956;SDS011;48483;44.640;7.494;2023-01-31T10:24:30;22.48;;;15.07;;
39956;SDS011;48483;44.640;7.494;2023-01-31T10:27:02;21.60;;;14.70;;
39956;SDS011;48483;44.640;7.494;2023-01-31T10:29:33;21.08;;;14.27;;
39956;SDS011;48483;44.640;7.494;2023-01-31T10:34:32;21.50;;;13.68;;
39956;SDS011;48483;44.640;7.494;2023-01-31T10:37:06;19.77;;;13.82;;
39956;SDS011;48483;44.640;7.494;2023-01-31T10:39:39;19.02;;;13.93;;
39956;SDS011;48483;44.640;7.494;2023-01-31T10:42:14;22.52;;;14.35;;
39956;SDS011;48483;44.640;7.494;2023-01-31T10:44:46;24.35;;;13.32;;
39956;SDS011;48483;44.640;7.494;2023-01-31T10:47:17;22.13;;;13.38;;
39956;SDS011;48483;44.640;7.494;2023-01-31T10:49:47;22.08;;;13.80;;
39956;SDS011;48483;44.640;7.494;2023-01-31T10:52:29;25.70;;;13.80;;
39956;SDS011;48483;44.640;7.494;2023-01-31T10:55:08;20.63;;;12.80;;
39956;SDS011;48483;44.640;7.494;2023-01-31T10:57:49;20.70;;;12.70;;
39956;SDS011;48483;44.640;7.494;2023-01-31T11:00:18;23.67;;;15.27;;
39956;SDS011;48483;44.640;7.494;2023-01-31T11:02:48;23.08;;;14.68;;
39956;SDS011;48483;44.640;7.494;2023-01-31T11:05:17;20.70;;;13.50;;
39956;SDS011;48483;44.640;7.494;2023-01-31T11:07:46;24.23;;;16.10;;
39956;SDS011;48483;44.640;7.494;2023-01-31T11:10:20;18.52;;;13.55;;
39956;SDS011;48483;44.640;7.494;2023-01-31T11:12:52;24.52;;;14.30;;
39956;SDS011;48483;44.640;7.494;2023-01-31T11:15:22;19.63;;;14.20;;
39956;SDS011;48483;44.640;7.494;2023-01-31T11:17:51;19.98;;;13.95;;
39956;SDS011;48483;44.640;7.494;2023-01-31T11:20:23;17.10;;;12.20;;
39956;SDS011;48483;44.640;7.494;2023-01-31T11:22:52;19.13;;;11.45;;
39956;SDS011;48483;44.640;7.494;2023-01-31T11:25:21;20.02;;;12.82;;
39956;SDS011;48483;44.640;7.494;2023-01-31T11:27:51;16.98;;;12.38;;
39956;SDS011;48483;44.640;7.494;2023-01-31T11:30:20;22.45;;;12.88;;
39956;SDS011;48483;44.640;7.494;2023-01-31T11:32:50;23.27;;;13.13;;
39956;SDS011;48483;44.640;7.494;2023-01-31T11:35:22;23.25;;;13.25;;
39956;SDS011;48483;44.640;7.494;2023-01-31T11:37:52;19.40;;;13.27;;
39956;SDS011;48483;44.640;7.494;2023-01-31T11:40:21;17.75;;;10.63;;
39956;SDS011;48483;44.640;7.494;2023-01-31T11:42:55;18.75;;;11.73;;
39956;SDS011;48483;44.640;7.494;2023-01-31T11:45:23;17.17;;;10.80;;
39956;SDS011;48483;44.640;7.494;2023-01-31T11:47:56;16.23;;;11.63;;
39956;SDS011;48483;44.640;7.494;2023-01-31T11:50:26;18.38;;;11.48;;
39956;SDS011;48483;44.640;7.494;2023-01-31T11:52:58;15.38;;;10.27;;
39956;SDS011;48483;44.640;7.494;2023-01-31T11:55:26;16.58;;;9.68;;
39956;SDS011;48483;44.640;7.494;2023-01-31T11:58:00;14.93;;;9.02;;
39956;SDS011;48483;44.640;7.494;2023-01-31T12:00:33;16.33;;;11.05;;
39956;SDS011;48483;44.640;7.494;2023-01-31T12:03:00;15.60;;;11.10;;
39956;SDS011;48483;44.640;7.494;2023-01-31T12:05:32;18.42;;;11.23;;
39956;SDS011;48483;44.640;7.494;2023-01-31T12:08:01;16.85;;;11.48;;
39956;SDS011;48483;44.640;7.494;2023-01-31T12:10:33;15.07;;;10.43;;
39956;SDS011;48483;44.640;7.494;2023-01-31T12:13:13;18.88;;;10.10;;
39956;SDS011;48483;44.640;7.494;2023-01-31T12:15:44;17.70;;;11.55;;
39956;SDS011;48483;44.640;7.494;2023-01-31T12:18:16;18.17;;;12.07;;
39956;SDS011;48483;44.640;7.494;2023-01-31T12:20:51;16.60;;;10.95;;
39956;SDS011;48483;44.640;7.494;2023-01-31T12:23:26;18.52;;;12.10;;
39956;SDS011;48483;44.640;7.494;2023-01-31T12:26:03;15.68;;;11.23;;
39956;SDS011;48483;44.640;7.494;2023-01-31T12:28:38;14.32;;;10.95;;
39956;SDS011;48483;44.640;7.494;2023-01-31T12:31:23;14.75;;;9.63;;
39956;SDS011;48483;44.640;7.494;2023-01-31T12:34:05;16.08;;;10.07;;
39956;SDS011;48483;44.640;7.494;2023-01-31T12:36:51;19.52;;;11.55;;
39956;SDS011;48483;44.640;7.494;2023-01-31T12:39:35;15.77;;;9.27;;
39956;SDS011;48483;44.640;7.494;2023-01-31T12:42:15;16.23;;;10.82;;
39956;SDS011;48483;44.640;7.494;2023-01-31T12:44:55;14.95;;;11.18;;
39956;SDS011;48483;44.640;7.494;2023-01-31T12:47:56;15.70;;;10.77;;
39956;SDS011;48483;44.640;7.494;2023-01-31T12:50:36;17.75;;;10.60;;
39956;SDS011;48483;44.640;7.494;2023-01-31T12:53:17;16.77;;;11.45;;
39956;SDS011;48483;44.640;7.494;2023-01-31T12:55:57;15.98;;;10.13;;
39956;SDS011;48483;44.640;7.494;2023-01-31T12:58:37;17.23;;;11.15;;
39956;SDS011;48483;44.640;7.494;2023-01-31T13:01:12;15.35;;;10.10;;
39956;SDS011;48483;44.640;7.494;2023-01-31T13:03:44;15.47;;;10.73;;
39956;SDS011;48483;44.640;7.494;2023-01-31T13:06:25;14.68;;;10.82;;
39956;SDS011;48483;44.640;7.494;2023-01-31T13:08:58;17.08;;;10.43;;
39956;SDS011;48483;44.640;7.494;2023-01-31T13:11:29;14.93;;;10.52;;
39956;SDS011;48483;44.640;7.494;2023-01-31T13:14:01;16.20;;;9.40;;
39956;SDS011;48483;44.640;7.494;2023-01-31T13:16:30;15.02;;;10.18;;
39956;SDS011;48483;44.640;7.494;2023-01-31T13:18:59;17.67;;;10.13;;
39956;SDS011;48483;44.640;7.494;2023-01-31T13:21:30;19.48;;;11.30;;
39956;SDS011;48483;44.640;7.494;2023-01-31T13:24:02;16.05;;;11.75;;
39956;SDS011;48483;44.640;7.494;2023-01-31T13:26:35;16.92;;;10.63;;
39956;SDS011;48483;44.640;7.494;2023-01-31T13:29:09;13.88;;;10.13;;
39956;SDS011;48483;44.640;7.494;2023-01-31T13:31:41;13.13;;;9.85;;
39956;SDS011;48483;44.640;7.494;2023-01-31T13:34:12;18.02;;;11.30;;
39956;SDS011;48483;44.640;7.494;2023-01-31T13:36:44;16.40;;;11.35;;
39956;SDS011;48483;44.640;7.494;2023-01-31T13:39:18;16.55;;;10.80;;
39956;SDS011;48483;44.640;7.494;2023-01-31T13:41:48;17.38;;;10.85;;
39956;SDS011;48483;44.640;7.494;2023-01-31T13:44:15;14.10;;;10.73;;
39956;SDS011;48483;44.640;7.494;2023-01-31T13:46:43;14.63;;;10.60;;
39956;SDS011;48483;44.640;7.494;2023-01-31T13:49:15;15.73;;;10.60;;
39956;SDS011;48483;44.640;7.494;2023-01-31T13:51:48;18.40;;;11.48;;
39956;SDS011;48483;44.640;7.494;2023-01-31T13:54:20;15.43;;;10.38;;
39956;SDS011;48483;44.640;7.494;2023-01-31T13:56:51;15.23;;;10.73;;
39956;SDS011;48483;44.640;7.494;2023-01-31T13:59:20;14.02;;;10.93;;
39956;SDS011;48483;44.640;7.494;2023-01-31T14:01:49;16.80;;;11.30;;
39956;SDS011;48483;44.640;7.494;2023-01-31T14:04:25;17.67;;;12.57;;
39956;SDS011;48483;44.640;7.494;2023-01-31T14:12:46;19.53;;;12.60;;
39956;SDS011;48483;44.640;7.494;2023-01-31T14:18:12;19.67;;;13.98;;
39956;SDS011;48483;44.640;7.494;2023-01-31T14:24:17;18.30;;;14.02;;
39956;SDS011;48483;44.640;7.494;2023-01-31T14:26:59;26.00;;;15.50;;
39956;SDS011;48483;44.640;7.494;2023-01-31T14:29:25;23.60;;;15.32;;
39956;SDS011;48483;44.640;7.494;2023-01-31T14:31:53;22.75;;;15.57;;
39956;SDS011;48483;44.640;7.494;2023-01-31T14:34:23;21.30;;;14.68;;
39956;SDS011;48483;44.640;7.494;2023-01-31T14:36:54;19.42;;;14.63;;
39956;SDS011;48483;44.640;7.494;2023-01-31T14:42:49;22.30;;;15.82;;
39956;SDS011;48483;44.640;7.494;2023-01-31T14:45:46;24.98;;;15.00;;
39956;SDS011;48483;44.640;7.494;2023-01-31T14:48:37;21.92;;;15.32;;
39956;SDS011;48483;44.640;7.494;2023-01-31T14:51:21;22.45;;;15.35;;
39956;SDS011;48483;44.640;7.494;2023-01-31T14:53:57;20.70;;;14.68;;
39956;SDS011;48483;44.640;7.494;2023-01-31T14:56:42;26.63;;;15.32;;
39956;SDS011;48483;44.640;7.494;2023-01-31T14:59:28;22.63;;;15.02;;
39956;SDS011;48483;44.640;7.494;2023-01-31T15:01:58;23.00;;;16.77;;
39956;SDS011;48483;44.640;7.494;2023-01-31T15:04:27;24.48;;;16.15;;
39956;SDS011;48483;44.640;7.494;2023-01-31T15:06:55;25.83;;;18.35;;
39956;SDS011;48483;44.640;7.494;2023-01-31T15:09:35;22.70;;;17.50;;
39956;SDS011;48483;44.640;7.494;2023-01-31T15:12:03;24.33;;;18.13;;